Adak Island, Alaska
Current Conditions -  °F | °C
As of 1:36 PM on Friday 28 Nov 2014 (Local Time) from PADK Reporting Station
Clear Clear  
Wind Chill:   Ceiling: Unl
Heat Index:   Visibility: 10mi
Dew Point: -1°   Wind: 10mph
Humidity: 70%   Direction: 240°WSW
Pressure: 30.28"   Gusts: NA
Location:  51.88°N, 176.65°W
Report Text: PADK 282236Z AUTO 24009KT 10SM CLR 04/M01 A3028 RMK AO1
Loading
Personal Weather Stations






























Interactive Weather Map New forecast layout! Learn more

10-Day Weather Forecast

Advertisements
Track Severe Weather on mobile